• Join FlightAware (Why Join?)
  • Login
  • US Flag 
02:17AM EST


 

Airport Tracker/Info


-or-


 

Live Flight TrackerFlight Track Log ✈ UAL4457 ✈ 07-May-2013 ✈ KIAH - KLEX

Flight Track Log - Related Links

Times and Time Zones

All times are in EDT time to prevent confusion due to time zone crossing. See the UAL4457 flight status page for this flight to view local times or setup timezone preferences in your user account.

Time Position Orientation Groundspeed Altitude Reporting Facility
EDT Latitude Longitude Course Direction KTS MPH feet Rate Location/Type
02:58PM 29.9597 -95.3439 35° Northeast 165 190 800  Level Houston Center
03:00PM 29.9683 -95.3933 281° West 244 281 2,700 2,040 Climbing Houston Center
03:01PM 30.0453 -95.3842 North 261 300 5,400 2,640 Climbing Houston Center
03:02PM 30.3492 -95.0407 35° Northeast  Level FlightAware Approximate
03:02PM 30.1100 -95.3569 20° North 268 308 8,100  Level Houston Center
03:03PM 30.4378 -94.9622 41° Northeast  Level FlightAware Approximate
03:03PM 30.1767 -95.2789 45° Northeast 286 329 10,600  Level Houston Center
03:04PM 30.5315 -94.8981 35° Northeast  Level FlightAware Approximate
03:04PM 30.2353 -95.2092 46° Northeast 301 346 11,900  Level Houston Center
03:05PM 30.3006 -95.1308 46° Northeast 334 384 13,000 960 Climbing Houston Center
03:06PM 30.3697 -95.0458 47° Northeast 359 413 14,000 960 Climbing Houston Center
03:07PM 30.4564 -94.9650 39° Northeast 375 432 15,000 1,320 Climbing Houston Center
03:08PM 30.5425 -94.9000 33° Northeast 372 428 16,800 1,500 Climbing Houston Center
03:09PM 30.6258 -94.8364 33° Northeast 362 417 18,100 1,380 Climbing Houston Center
03:10PM 30.7289 -94.7564 34° Northeast 371 427 19,700 1,320 Climbing Houston Center
03:11PM 30.8167 -94.6883 34° Northeast 378 435 20,900 1,200 Climbing Houston Center
03:12PM 30.8822 -94.6372 34° Northeast 376 433 22,000 1,200 Climbing Fort Worth Center
03:13PM 30.9725 -94.5692 33° Northeast 376 433 23,200 1,200 Climbing Fort Worth Center
03:14PM 31.0647 -94.4961 34° Northeast 381 438 24,500 1,200 Climbing Fort Worth Center
03:15PM 31.1633 -94.4200 33° Northeast 381 438 25,700 1,020 Climbing Fort Worth Center
03:16PM 31.2472 -94.3542 34° Northeast 387 445 26,600 900 Climbing Fort Worth Center
03:17PM 31.3394 -94.2808 34° Northeast 392 451 27,600 900 Climbing Fort Worth Center
03:18PM 31.4317 -94.2119 33° Northeast 392 451 28,500 900 Climbing Fort Worth Center
03:19PM 31.5236 -94.1381 34° Northeast 392 451 29,500 960 Climbing Fort Worth Center
03:20PM 31.6178 -94.0639 34° Northeast 392 451 30,500 720 Climbing Fort Worth Center
03:21PM 31.7139 -93.9922 32° Northeast 392 451 31,000 240 Climbing Fort Worth Center
03:22PM 31.8100 -93.9153 34° Northeast 406 467 31,000 480 Level Fort Worth Center
03:23PM 31.9142 -93.8331 34° Northeast 425 489 32,000 960 Climbing Fort Worth Center
03:24PM 32.0119 -93.7531 35° Northeast 431 496 33,000 960 Climbing Fort Worth Center
03:25PM 32.1122 -93.6781 32° Northeast 426 490 34,000 960 Climbing Fort Worth Center
03:26PM 32.2097 -93.5906 37° Northeast 426 490 35,000 480 Climbing Fort Worth Center
03:27PM 32.3075 -93.5103 35° Northeast 432 497 35,000  Level Fort Worth Center
03:28PM 32.4094 -93.4319 33° Northeast 432 497 35,000  Level Fort Worth Center
03:29PM 32.5111 -93.3486 35° Northeast 432 497 35,000  Level Fort Worth Center
03:30PM 32.6128 -93.2653 35° Northeast 432 497 35,000  Level Fort Worth Center
03:31PM 32.7103 -93.1867 34° Northeast 432 497 35,000  Level Fort Worth Center
03:32PM 32.8097 -93.1078 34° Northeast 432 497 35,000  Level Fort Worth Center
03:33PM 32.9072 -93.0289 34° Northeast 432 497 35,000  Level Fort Worth Center
03:35PM 33.1569 -92.8264 34° Northeast 441 507 35,000  Level Memphis Center
03:36PM 33.2567 -92.7422 35° Northeast 430 495 35,000  Level Memphis Center
03:37PM 33.3339 -92.6297 51° Northeast 421 484 35,000  Level Memphis Center
03:38PM 33.4133 -92.5150 50° Northeast 433 498 35,000  Level Memphis Center
03:39PM 33.4861 -92.3972 53° Northeast 438 504 35,000  Level Memphis Center
03:40PM 33.5631 -92.2817 51° Northeast 438 504 35,000  Level Memphis Center
03:41PM 33.6400 -92.1661 51° Northeast 438 504 35,000  Level Memphis Center
03:42PM 33.7167 -92.0503 51° Northeast 438 504 35,000  Level Memphis Center
03:43PM 33.7892 -91.9344 53° Northeast 438 504 35,000  Level Memphis Center
03:44PM 33.8658 -91.8156 52° Northeast 438 504 35,000  Level Memphis Center
03:45PM 33.9381 -91.6992 53° Northeast 438 504 35,000  Level Memphis Center
03:46PM 34.0039 -91.5950 53° Northeast 438 504 35,000  Level Memphis Center
03:47PM 34.0758 -91.4781 53° Northeast 433 498 35,000  Level Memphis Center
03:48PM 34.1519 -91.3636 51° Northeast 427 491 35,000  Level Memphis Center
03:49PM 34.2281 -91.2439 52° Northeast 440 506 35,000  Level Memphis Center
03:50PM 34.3019 -91.1267 53° Northeast 440 506 35,000  Level Memphis Center
03:51PM 34.3778 -91.0089 52° Northeast 440 506 35,000  Level Memphis Center
03:52PM 34.4617 -90.8761 53° Northeast 440 506 35,000  Level Memphis Center
03:53PM 34.5372 -90.7556 53° Northeast 446 513 35,000  Level Memphis Center
03:54PM 34.6128 -90.6347 53° Northeast 441 507 35,000  Level Memphis Center
03:55PM 34.6858 -90.5136 54° Northeast 441 507 35,000  Level Memphis Center
03:56PM 34.7611 -90.3925 53° Northeast 446 513 35,000  Level Memphis Center
03:57PM 34.8361 -90.2711 53° Northeast 446 513 35,000  Level Memphis Center
03:58PM 34.9111 -90.1519 52° Northeast 446 513 35,000  Level Memphis Center
03:59PM 34.9797 -90.0478 51° Northeast 446 513 35,000  Level Memphis Center
04:00PM 35.0442 -89.9183 59° Northeast 446 513 35,000  Level Memphis Center
04:01PM 35.0936 -89.7758 67° East 446 513 35,000  Level Memphis Center
04:02PM 35.1469 -89.6231 67° East 446 513 35,000  Level Memphis Center
04:03PM 35.1942 -89.4856 67° East 441 507 35,000  Level Memphis Center
04:04PM 35.2431 -89.3478 66° East 435 501 35,000  Level Memphis Center
04:05PM 35.2919 -89.2097 67° East 440 506 35,000 -480 Level Memphis Center
04:06PM 35.3386 -89.0692 68° East 440 506 34,100 -1,020 Descending Memphis Center
04:07PM 35.3914 -88.9308 65° Northeast 440 506 33,000 -600 Descending Memphis Center
04:08PM 35.4333 -88.7925 70° East 440 506 33,000  Level Memphis Center
04:09PM 35.4900 -88.6589 62° Northeast 435 501 33,000  Level Memphis Center
04:10PM 35.5569 -88.5325 57° Northeast 435 501 33,000  Level Memphis Center
04:11PM 35.6261 -88.4058 56° Northeast 442 509 33,000  Level Memphis Center
04:12PM 35.6908 -88.2814 57° Northeast 442 509 33,000  Level Memphis Center
04:13PM 35.7597 -88.1619 55° Northeast 435 501 33,000  Level Memphis Center
04:14PM 35.8161 -88.0531 57° Northeast 425 489 33,000  Level Memphis Center
04:15PM 35.8783 -87.9361 57° Northeast 413 475 33,000  Level Memphis Center
04:16PM 35.9386 -87.8164 58° Northeast 413 475 33,000  Level Memphis Center
04:17PM 36.0008 -87.6964 57° Northeast 418 481 33,000  Level Memphis Center
04:18PM 36.0628 -87.5761 57° Northeast 418 481 33,000  Level Memphis Center
04:19PM 36.1247 -87.4558 57° Northeast 418 481 33,000  Level Memphis Center
04:20PM 36.1964 -87.3197 57° Northeast 423 487 33,000  Level Memphis Center
04:21PM 36.2600 -87.1964 57° Northeast 418 481 33,000  Level Memphis Center
04:22PM 36.3214 -87.0753 58° Northeast 418 481 33,000  Level Memphis Center
04:23PM 36.3711 -86.9831 56° Northeast 418 481 33,000  Level Memphis Center
04:24PM 36.4319 -86.8464 61° Northeast 418 481 33,000  Level Memphis Center
04:25PM 36.4972 -86.7250 56° Northeast 418 481 33,000  Level Memphis Center
04:26PM 36.5583 -86.6033 58° Northeast 413 475 33,000 -180 Level Memphis Center
04:27PM 36.6192 -86.4842 58° Northeast 413 475 32,700 -720 Descending Memphis Center
04:29PM 36.7353 -86.2506 58° Northeast 426 490 31,000 -960 Descending Indianapolis Center
04:30PM 36.7986 -86.1228 58° Northeast 430 495 30,100 -1,020 Descending Indianapolis Center
04:31PM 36.8631 -85.9911 59° Northeast 436 502 29,000 -1,020 Descending Indianapolis Center
04:32PM 36.9275 -85.8617 58° Northeast 436 502 28,000 -720 Descending Indianapolis Center
04:33PM 36.9881 -85.7381 58° Northeast 420 483 27,600 -720 Descending Indianapolis Center
04:34PM 37.0575 -85.5947 59° Northeast 411 473 26,600 -840 Descending Indianapolis Center
04:35PM 37.1186 -85.4683 59° Northeast 430 495 25,900 -1,260 Descending Indianapolis Center
04:37PM 37.1789 -85.3461 58° Northeast 413 475 24,000 -2,220 Descending Indianapolis Center
04:38PM 37.2369 -85.2256 59° Northeast 402 463 21,400 -3,000 Descending Indianapolis Center
04:39PM 37.3017 -85.0928 58° Northeast 382 440 17,800 -3,300 Descending Indianapolis Center
04:40PM 37.3558 -84.9800 59° Northeast 377 434 14,600 -3,120 Descending Indianapolis Center
04:41PM 37.4081 -84.8706 59° Northeast 366 421 11,400 -1,800 Descending Indianapolis Center
04:42PM 37.4575 -84.7653 59° Northeast 353 406 11,000 -240 Descending Indianapolis Center
04:43PM 37.5392 -84.7064 30° Northeast 353 406 11,000 -240 Level Indianapolis Center
04:44PM 37.6236 -84.7522 337° Northwest 333 383 10,600 -1,140 Descending Indianapolis Center
04:45PM 37.7044 -84.7783 346° North 268 308 8,700 -2,340 Descending Indianapolis Center
04:46PM 37.7739 -84.7856 355° North 252 290 5,800 -2,280 Descending Indianapolis Center
04:47PM 37.8422 -84.7861 360° North 249 287 4,000 -1,020 Descending Indianapolis Center
04:48PM 37.9056 -84.7475 26° Northeast 255 293 3,800 -540 Descending Indianapolis Center
04:49PM 37.9569 -84.6958 38° Northeast 249 287 2,900 -780 Descending Indianapolis Center
04:50PM 37.9953 -84.6533 41° Northeast 237 273 2,300 -600 Descending Indianapolis Center